sensor_id;sensor_type;location;lat;lon;timestamp;pressure;altitude;pressure_sealevel;temperature;humidity
6835;BME280;3455;42.150;24.734;2022-09-03T00:00:22;68436.78;;;27.31;71.65
6835;BME280;3455;42.150;24.734;2022-09-03T00:02:56;68445.06;;;27.43;72.11
6835;BME280;3455;42.150;24.734;2022-09-03T00:05:30;68480.75;;;27.49;71.64
6835;BME280;3455;42.150;24.734;2022-09-03T00:08:04;68382.19;;;26.99;72.95
6835;BME280;3455;42.150;24.734;2022-09-03T00:10:40;68389.50;;;26.88;73.61
6835;BME280;3455;42.150;24.734;2022-09-03T00:13:13;68367.81;;;26.85;74.09
6835;BME280;3455;42.150;24.734;2022-09-03T00:15:42;68284.91;;;26.51;75.00
6835;BME280;3455;42.150;24.734;2022-09-03T00:18:12;68400.81;;;26.70;74.08
6835;BME280;3455;42.150;24.734;2022-09-03T00:20:43;68370.03;;;26.98;73.44
6835;BME280;3455;42.150;24.734;2022-09-03T00:23:17;68265.16;;;26.63;74.69
6835;BME280;3455;42.150;24.734;2022-09-03T00:25:49;68311.06;;;26.60;74.83
6835;BME280;3455;42.150;24.734;2022-09-03T00:28:21;68378.97;;;26.78;74.42
6835;BME280;3455;42.150;24.734;2022-09-03T00:31:04;68352.94;;;26.78;74.02
6835;BME280;3455;42.150;24.734;2022-09-03T00:33:33;68362.19;;;26.77;74.05
6835;BME280;3455;42.150;24.734;2022-09-03T00:36:08;68338.00;;;26.84;73.95
6835;BME280;3455;42.150;24.734;2022-09-03T00:38:38;68347.09;;;26.73;74.16
6835;BME280;3455;42.150;24.734;2022-09-03T00:41:08;68317.50;;;26.66;74.48
6835;BME280;3455;42.150;24.734;2022-09-03T00:44:02;68366.34;;;26.86;73.31
6835;BME280;3455;42.150;24.734;2022-09-03T00:46:37;68298.44;;;26.47;75.10
6835;BME280;3455;42.150;24.734;2022-09-03T00:49:16;68300.88;;;26.37;74.96
6835;BME280;3455;42.150;24.734;2022-09-03T00:51:50;68367.97;;;26.78;73.81
6835;BME280;3455;42.150;24.734;2022-09-03T00:54:28;68341.19;;;26.64;74.12
6835;BME280;3455;42.150;24.734;2022-09-03T00:57:10;68375.50;;;26.96;72.22
6835;BME280;3455;42.150;24.734;2022-09-03T00:59:46;68362.19;;;26.77;73.28
6835;BME280;3455;42.150;24.734;2022-09-03T01:02:19;68266.97;;;26.49;73.80
6835;BME280;3455;42.150;24.734;2022-09-03T01:04:56;68320.88;;;26.59;74.15
6835;BME280;3455;42.150;24.734;2022-09-03T01:07:33;68372.44;;;26.68;73.69
6835;BME280;3455;42.150;24.734;2022-09-03T01:10:12;68317.78;;;26.48;74.73
6835;BME280;3455;42.150;24.734;2022-09-03T01:12:48;68331.31;;;26.44;74.69
6835;BME280;3455;42.150;24.734;2022-09-03T01:15:22;68252.84;;;25.95;76.06
6835;BME280;3455;42.150;24.734;2022-09-03T01:18:01;68218.38;;;25.70;77.60
6835;BME280;3455;42.150;24.734;2022-09-03T01:20:40;68253.50;;;26.00;76.30
6835;BME280;3455;42.150;24.734;2022-09-03T01:23:32;68300.38;;;26.41;74.56
6835;BME280;3455;42.150;24.734;2022-09-03T01:26:19;68296.19;;;26.33;74.35
6835;BME280;3455;42.150;24.734;2022-09-03T01:29:01;68272.91;;;26.22;74.91
6835;BME280;3455;42.150;24.734;2022-09-03T01:31:36;68296.38;;;26.27;74.90
6835;BME280;3455;42.150;24.734;2022-09-03T01:34:15;68261.84;;;26.17;74.97
6835;BME280;3455;42.150;24.734;2022-09-03T01:36:51;68261.34;;;26.21;74.97
6835;BME280;3455;42.150;24.734;2022-09-03T01:39:27;68320.50;;;26.36;74.15
6835;BME280;3455;42.150;24.734;2022-09-03T01:42:01;68253.81;;;26.19;74.95
6835;BME280;3455;42.150;24.734;2022-09-03T01:45:05;68261.34;;;26.21;73.86
6835;BME280;3455;42.150;24.734;2022-09-03T01:47:45;68183.81;;;25.55;76.24
6835;BME280;3455;42.150;24.734;2022-09-03T01:50:25;68207.25;;;25.60;76.68
6835;BME280;3455;42.150;24.734;2022-09-03T01:53:04;68242.47;;;25.79;76.19
6835;BME280;3455;42.150;24.734;2022-09-03T01:55:45;68273.78;;;26.05;74.83
6835;BME280;3455;42.150;24.734;2022-09-03T01:58:24;68274.50;;;26.14;74.12
6835;BME280;3455;42.150;24.734;2022-09-03T02:00:56;68241.44;;;26.03;73.37
6835;BME280;3455;42.150;24.734;2022-09-03T02:03:33;68268.50;;;26.36;72.91
6835;BME280;3455;42.150;24.734;2022-09-03T02:06:01;68253.78;;;25.98;73.60
6835;BME280;3455;42.150;24.734;2022-09-03T02:08:32;68221.88;;;25.73;74.64
6835;BME280;3455;42.150;24.734;2022-09-03T02:10:59;68216.59;;;25.68;74.45
6835;BME280;3455;42.150;24.734;2022-09-03T02:13:29;68183.78;;;25.71;75.09
6835;BME280;3455;42.150;24.734;2022-09-03T02:16:01;68163.19;;;25.64;74.95
6835;BME280;3455;42.150;24.734;2022-09-03T02:18:32;68186.19;;;25.41;75.42
6835;BME280;3455;42.150;24.734;2022-09-03T02:21:02;68203.16;;;25.56;74.94
6835;BME280;3455;42.150;24.734;2022-09-03T02:23:29;68192.56;;;25.63;74.62
6835;BME280;3455;42.150;24.734;2022-09-03T02:25:59;68218.22;;;25.60;75.18
6835;BME280;3455;42.150;24.734;2022-09-03T02:28:27;68207.84;;;25.60;74.42
6835;BME280;3455;42.150;24.734;2022-09-03T02:30:54;68224.22;;;25.75;73.56
6835;BME280;3455;42.150;24.734;2022-09-03T02:33:22;68246.13;;;26.08;72.71
6835;BME280;3455;42.150;24.734;2022-09-03T02:35:49;68243.47;;;25.87;72.87
6835;BME280;3455;42.150;24.734;2022-09-03T02:38:18;68162.03;;;25.48;74.36
6835;BME280;3455;42.150;24.734;2022-09-03T02:40:45;68197.44;;;25.60;73.95
6835;BME280;3455;42.150;24.734;2022-09-03T02:43:16;68301.25;;;26.24;71.39
6835;BME280;3455;42.150;24.734;2022-09-03T02:45:47;68234.44;;;25.81;72.82
6835;BME280;3455;42.150;24.734;2022-09-03T02:48:16;68177.56;;;25.43;74.16
6835;BME280;3455;42.150;24.734;2022-09-03T02:50:47;68131.63;;;25.21;74.68
6835;BME280;3455;42.150;24.734;2022-09-03T02:53:14;68178.91;;;25.74;72.83
6835;BME280;3455;42.150;24.734;2022-09-03T02:55:41;68219.16;;;25.84;72.27
6835;BME280;3455;42.150;24.734;2022-09-03T02:58:07;68189.09;;;25.80;71.50
6835;BME280;3455;42.150;24.734;2022-09-03T03:00:34;68277.88;;;26.08;70.77
6835;BME280;3455;42.150;24.734;2022-09-03T03:03:01;68158.75;;;25.58;72.37
6835;BME280;3455;42.150;24.734;2022-09-03T03:05:36;68197.22;;;25.83;71.21
6835;BME280;3455;42.150;24.734;2022-09-03T03:08:05;68231.59;;;25.68;71.98
6835;BME280;3455;42.150;24.734;2022-09-03T03:10:33;68217.34;;;25.78;71.39
6835;BME280;3455;42.150;24.734;2022-09-03T03:13:02;68142.81;;;25.35;73.48
6835;BME280;3455;42.150;24.734;2022-09-03T03:15:29;68130.03;;;25.29;74.26
6835;BME280;3455;42.150;24.734;2022-09-03T03:17:56;68241.69;;;25.86;72.08
6835;BME280;3455;42.150;24.734;2022-09-03T03:20:23;68243.13;;;26.00;71.27
6835;BME280;3455;42.150;24.734;2022-09-03T03:22:50;68253.00;;;26.05;70.54
6835;BME280;3455;42.150;24.734;2022-09-03T03:25:18;68233.38;;;25.90;71.53
6835;BME280;3455;42.150;24.734;2022-09-03T03:27:45;68192.78;;;25.56;72.43
6835;BME280;3455;42.150;24.734;2022-09-03T03:30:12;68177.19;;;25.56;72.07
6835;BME280;3455;42.150;24.734;2022-09-03T03:32:39;68230.06;;;25.80;71.31
6835;BME280;3455;42.150;24.734;2022-09-03T03:35:07;68152.59;;;25.35;72.93
6835;BME280;3455;42.150;24.734;2022-09-03T03:37:33;68156.50;;;25.24;73.63
6835;BME280;3455;42.150;24.734;2022-09-03T03:40:01;68181.56;;;25.42;73.06
6835;BME280;3455;42.150;24.734;2022-09-03T03:42:31;68240.47;;;25.96;70.44
6835;BME280;3455;42.150;24.734;2022-09-03T03:44:59;68186.59;;;25.49;71.88
6835;BME280;3455;42.150;24.734;2022-09-03T03:47:27;68143.41;;;25.36;72.46
6835;BME280;3455;42.150;24.734;2022-09-03T03:49:54;68172.28;;;25.22;73.34
6835;BME280;3455;42.150;24.734;2022-09-03T03:52:21;68110.78;;;25.16;73.80
6835;BME280;3455;42.150;24.734;2022-09-03T03:54:47;68159.56;;;25.36;72.69
6835;BME280;3455;42.150;24.734;2022-09-03T03:57:14;68116.72;;;25.10;73.07
6835;BME280;3455;42.150;24.734;2022-09-03T03:59:43;68161.16;;;25.29;72.58
6835;BME280;3455;42.150;24.734;2022-09-03T04:02:09;68107.78;;;25.09;73.33
6835;BME280;3455;42.150;24.734;2022-09-03T04:04:36;68151.19;;;25.20;73.17
6835;BME280;3455;42.150;24.734;2022-09-03T04:07:03;68164.75;;;25.20;72.46
6835;BME280;3455;42.150;24.734;2022-09-03T04:09:30;68162.72;;;25.37;72.46
6835;BME280;3455;42.150;24.734;2022-09-03T04:11:57;68217.22;;;25.53;71.88
6835;BME280;3455;42.150;24.734;2022-09-03T04:14:23;68160.13;;;25.37;72.04
6835;BME280;3455;42.150;24.734;2022-09-03T04:16:52;68155.59;;;25.42;71.69
6835;BME280;3455;42.150;24.734;2022-09-03T04:19:20;68124.09;;;25.19;72.51
6835;BME280;3455;42.150;24.734;2022-09-03T04:21:46;68163.66;;;25.40;71.61
6835;BME280;3455;42.150;24.734;2022-09-03T04:24:13;68123.69;;;24.96;73.28
6835;BME280;3455;42.150;24.734;2022-09-03T04:26:40;68119.84;;;25.06;73.20
6835;BME280;3455;42.150;24.734;2022-09-03T04:29:08;68200.22;;;25.54;71.53
6835;BME280;3455;42.150;24.734;2022-09-03T04:31:36;68159.44;;;25.48;70.82
6835;BME280;3455;42.150;24.734;2022-09-03T04:34:05;68150.78;;;25.29;71.97
6835;BME280;3455;42.150;24.734;2022-09-03T04:36:31;68166.25;;;25.24;71.98
6835;BME280;3455;42.150;24.734;2022-09-03T04:38:59;68162.94;;;25.30;71.42
6835;BME280;3455;42.150;24.734;2022-09-03T04:41:28;68150.69;;;25.24;72.06
6835;BME280;3455;42.150;24.734;2022-09-03T04:43:56;68194.81;;;25.40;71.46
6835;BME280;3455;42.150;24.734;2022-09-03T04:46:25;68250.31;;;25.84;69.76
6835;BME280;3455;42.150;24.734;2022-09-03T04:48:57;68188.31;;;25.66;70.14
6835;BME280;3455;42.150;24.734;2022-09-03T04:51:27;68160.13;;;25.37;70.89
6835;BME280;3455;42.150;24.734;2022-09-03T04:53:56;68157.66;;;25.62;69.96
6835;BME280;3455;42.150;24.734;2022-09-03T04:56:25;68198.69;;;25.66;69.98
6835;BME280;3455;42.150;24.734;2022-09-03T04:58:54;68225.13;;;25.94;69.09
6835;BME280;3455;42.150;24.734;2022-09-03T05:01:23;68283.81;;;26.18;68.25
6835;BME280;3455;42.150;24.734;2022-09-03T05:03:50;68348.97;;;26.48;66.82
6835;BME280;3455;42.150;24.734;2022-09-03T05:06:17;68350.66;;;26.60;66.65
6835;BME280;3455;42.150;24.734;2022-09-03T05:08:48;68307.38;;;26.48;66.27
6835;BME280;3455;42.150;24.734;2022-09-03T05:11:15;68375.63;;;26.69;65.61
6835;BME280;3455;42.150;24.734;2022-09-03T05:13:45;68406.31;;;26.89;64.66
6835;BME280;3455;42.150;24.734;2022-09-03T05:16:12;68375.47;;;26.75;65.42
6835;BME280;3455;42.150;24.734;2022-09-03T05:18:39;68314.88;;;26.45;66.27
6835;BME280;3455;42.150;24.734;2022-09-03T05:21:08;68302.75;;;26.48;65.57
6835;BME280;3455;42.150;24.734;2022-09-03T05:23:37;68329.22;;;26.76;65.41
6835;BME280;3455;42.150;24.734;2022-09-03T05:26:07;68382.63;;;26.91;64.45
6835;BME280;3455;42.150;24.734;2022-09-03T05:28:35;68329.16;;;26.71;64.60
6835;BME280;3455;42.150;24.734;2022-09-03T05:31:04;68463.88;;;27.44;63.01
6835;BME280;3455;42.150;24.734;2022-09-03T05:33:32;68484.41;;;27.62;62.12
6835;BME280;3455;42.150;24.734;2022-09-03T05:36:00;68473.22;;;27.88;60.95
6835;BME280;3455;42.150;24.734;2022-09-03T05:38:27;68531.72;;;27.89;61.44
6835;BME280;3455;42.150;24.734;2022-09-03T05:40:57;68617.22;;;28.66;58.13
6835;BME280;3455;42.150;24.734;2022-09-03T05:43:26;68838.94;;;30.03;53.58
6835;BME280;3455;42.150;24.734;2022-09-03T05:45:56;68865.84;;;30.17;53.05
6835;BME280;3455;42.150;24.734;2022-09-03T05:48:24;68853.97;;;30.39;52.24
6835;BME280;3455;42.150;24.734;2022-09-03T05:50:58;69057.91;;;31.43;49.11
6835;BME280;3455;42.150;24.734;2022-09-03T05:53:25;69107.28;;;31.73;49.63
6835;BME280;3455;42.150;24.734;2022-09-03T05:55:54;69217.53;;;32.39;47.14
6835;BME280;3455;42.150;24.734;2022-09-03T05:58:21;69168.25;;;32.19;46.98
6835;BME280;3455;42.150;24.734;2022-09-03T06:00:51;69238.25;;;32.41;46.86
6835;BME280;3455;42.150;24.734;2022-09-03T06:03:17;69353.56;;;33.05;44.66
6835;BME280;3455;42.150;24.734;2022-09-03T06:05:49;69494.97;;;33.86;43.25
6835;BME280;3455;42.150;24.734;2022-09-03T06:08:16;69522.75;;;34.06;42.11
6835;BME280;3455;42.150;24.734;2022-09-03T06:10:43;69510.31;;;33.95;42.30
6835;BME280;3455;42.150;24.734;2022-09-03T06:13:09;69500.94;;;33.96;42.47
6835;BME280;3455;42.150;24.734;2022-09-03T06:15:36;69606.00;;;34.60;41.34
6835;BME280;3455;42.150;24.734;2022-09-03T06:18:05;69605.31;;;34.55;41.55
6835;BME280;3455;42.150;24.734;2022-09-03T06:20:31;69729.72;;;35.12;40.83
6835;BME280;3455;42.150;24.734;2022-09-03T06:22:58;69943.91;;;36.42;37.55
6835;BME280;3455;42.150;24.734;2022-09-03T06:25:25;69835.78;;;35.90;38.51
6835;BME280;3455;42.150;24.734;2022-09-03T06:27:52;69977.06;;;36.62;38.16
6835;BME280;3455;42.150;24.734;2022-09-03T06:30:19;69970.59;;;36.61;37.15
6835;BME280;3455;42.150;24.734;2022-09-03T06:32:47;69956.44;;;36.58;36.62
6835;BME280;3455;42.150;24.734;2022-09-03T06:35:17;69894.97;;;36.28;37.45
6835;BME280;3455;42.150;24.734;2022-09-03T06:37:44;69977.47;;;36.49;37.24
6835;BME280;3455;42.150;24.734;2022-09-03T06:40:11;69775.59;;;35.86;38.04
6835;BME280;3455;42.150;24.734;2022-09-03T06:42:38;69944.59;;;36.27;37.40
6835;BME280;3455;42.150;24.734;2022-09-03T06:45:08;69965.19;;;36.52;37.19
6835;BME280;3455;42.150;24.734;2022-09-03T06:47:34;70110.09;;;37.17;35.62
6835;BME280;3455;42.150;24.734;2022-09-03T06:50:02;69662.44;;;34.97;39.26
6835;BME280;3455;42.150;24.734;2022-09-03T06:52:30;69442.41;;;33.91;41.55
6835;BME280;3455;42.150;24.734;2022-09-03T06:54:57;69381.28;;;33.45;43.63
6835;BME280;3455;42.150;24.734;2022-09-03T06:57:23;69313.88;;;33.07;44.02
6835;BME280;3455;42.150;24.734;2022-09-03T06:59:50;69601.13;;;34.46;42.69
6835;BME280;3455;42.150;24.734;2022-09-03T07:02:19;69947.47;;;36.46;37.93
6835;BME280;3455;42.150;24.734;2022-09-03T07:04:47;69892.56;;;36.21;38.21
6835;BME280;3455;42.150;24.734;2022-09-03T07:07:14;70131.97;;;37.48;34.55
6835;BME280;3455;42.150;24.734;2022-09-03T07:09:42;70259.59;;;38.05;34.27
6835;BME280;3455;42.150;24.734;2022-09-03T07:12:10;70061.50;;;37.35;35.66
6835;BME280;3455;42.150;24.734;2022-09-03T07:14:40;70245.75;;;37.84;34.94
6835;BME280;3455;42.150;24.734;2022-09-03T07:17:06;70254.75;;;37.96;33.80
6835;BME280;3455;42.150;24.734;2022-09-03T07:19:35;70374.56;;;38.54;33.45
6835;BME280;3455;42.150;24.734;2022-09-03T07:22:01;70330.94;;;38.32;33.85
6835;BME280;3455;42.150;24.734;2022-09-03T07:24:28;70461.56;;;38.99;32.63
6835;BME280;3455;42.150;24.734;2022-09-03T07:26:57;70257.59;;;38.31;33.28
6835;BME280;3455;42.150;24.734;2022-09-03T07:29:24;70499.25;;;39.16;31.92
6835;BME280;3455;42.150;24.734;2022-09-03T07:31:51;70360.00;;;38.64;32.85
6835;BME280;3455;42.150;24.734;2022-09-03T07:34:19;70246.16;;;38.12;33.55
6835;BME280;3455;42.150;24.734;2022-09-03T07:36:48;70221.78;;;37.95;32.83
6835;BME280;3455;42.150;24.734;2022-09-03T07:39:16;70197.31;;;37.70;33.47
6835;BME280;3455;42.150;24.734;2022-09-03T07:41:44;70244.69;;;37.92;33.70
6835;BME280;3455;42.150;24.734;2022-09-03T07:44:13;70286.28;;;38.40;32.04
6835;BME280;3455;42.150;24.734;2022-09-03T07:46:43;70769.97;;;40.52;29.47
6835;BME280;3455;42.150;24.734;2022-09-03T07:49:12;70847.94;;;40.87;28.27
6835;BME280;3455;42.150;24.734;2022-09-03T07:51:39;70899.38;;;41.22;27.56
6835;BME280;3455;42.150;24.734;2022-09-03T07:54:08;70893.88;;;41.13;28.14
6835;BME280;3455;42.150;24.734;2022-09-03T07:56:36;70784.31;;;40.64;27.92
6835;BME280;3455;42.150;24.734;2022-09-03T07:59:03;70753.94;;;40.47;28.32
6835;BME280;3455;42.150;24.734;2022-09-03T08:01:34;70598.13;;;39.78;29.28
6835;BME280;3455;42.150;24.734;2022-09-03T08:04:01;70528.81;;;39.59;29.22
6835;BME280;3455;42.150;24.734;2022-09-03T08:06:29;70612.78;;;39.72;29.80
6835;BME280;3455;42.150;24.734;2022-09-03T08:08:58;70670.34;;;40.31;28.48
6835;BME280;3455;42.150;24.734;2022-09-03T08:11:26;70974.28;;;41.09;27.29
6835;BME280;3455;42.150;24.734;2022-09-03T08:13:55;70673.44;;;40.38;28.48
6835;BME280;3455;42.150;24.734;2022-09-03T08:16:25;70697.47;;;40.26;28.20
6835;BME280;3455;42.150;24.734;2022-09-03T08:18:54;70754.13;;;40.61;27.39
6835;BME280;3455;42.150;24.734;2022-09-03T08:21:22;70993.84;;;41.85;27.17
6835;BME280;3455;42.150;24.734;2022-09-03T08:23:51;71010.41;;;41.85;27.42
6835;BME280;3455;42.150;24.734;2022-09-03T08:26:19;71251.34;;;42.77;25.86
6835;BME280;3455;42.150;24.734;2022-09-03T08:28:47;71462.06;;;43.84;23.89
6835;BME280;3455;42.150;24.734;2022-09-03T08:31:17;71102.25;;;42.23;26.34
6835;BME280;3455;42.150;24.734;2022-09-03T08:33:46;71052.31;;;41.75;26.44
6835;BME280;3455;42.150;24.734;2022-09-03T08:36:16;71120.13;;;42.29;25.93
6835;BME280;3455;42.150;24.734;2022-09-03T08:38:45;71494.28;;;43.93;24.47
6835;BME280;3455;42.150;24.734;2022-09-03T08:41:13;71471.41;;;43.73;24.74
6835;BME280;3455;42.150;24.734;2022-09-03T08:43:55;71457.78;;;43.76;24.21
6835;BME280;3455;42.150;24.734;2022-09-03T08:46:35;71819.44;;;45.31;23.26
6835;BME280;3455;42.150;24.734;2022-09-03T08:49:10;71072.78;;;42.13;25.46
6835;BME280;3455;42.150;24.734;2022-09-03T08:51:40;71232.09;;;42.61;25.47
6835;BME280;3455;42.150;24.734;2022-09-03T08:54:09;71453.72;;;43.65;24.08
6835;BME280;3455;42.150;24.734;2022-09-03T08:56:39;71357.16;;;43.26;24.44
6835;BME280;3455;42.150;24.734;2022-09-03T08:59:09;71291.47;;;43.18;25.07
6835;BME280;3455;42.150;24.734;2022-09-03T09:01:44;71194.13;;;42.60;24.39
6835;BME280;3455;42.150;24.734;2022-09-03T09:04:23;71099.84;;;42.20;24.62
6835;BME280;3455;42.150;24.734;2022-09-03T09:06:58;71336.66;;;43.41;24.23
6835;BME280;3455;42.150;24.734;2022-09-03T09:09:34;71251.78;;;43.05;24.38
6835;BME280;3455;42.150;24.734;2022-09-03T09:12:12;71493.50;;;43.99;23.44
6835;BME280;3455;42.150;24.734;2022-09-03T09:14:47;71484.81;;;43.94;23.62
6835;BME280;3455;42.150;24.734;2022-09-03T09:17:28;71621.75;;;44.58;23.33
6835;BME280;3455;42.150;24.734;2022-09-03T09:20:05;71733.41;;;45.33;22.51
6835;BME280;3455;42.150;24.734;2022-09-03T09:22:38;71389.47;;;43.77;23.39
6835;BME280;3455;42.150;24.734;2022-09-03T09:25:10;71355.81;;;43.52;23.52
6835;BME280;3455;42.150;24.734;2022-09-03T09:27:45;71131.75;;;42.52;24.88
6835;BME280;3455;42.150;24.734;2022-09-03T09:30:16;71428.09;;;43.78;23.44
6835;BME280;3455;42.150;24.734;2022-09-03T09:32:43;71561.44;;;44.64;22.72
6835;BME280;3455;42.150;24.734;2022-09-03T09:35:12;71579.00;;;44.47;22.99
6835;BME280;3455;42.150;24.734;2022-09-03T09:37:52;71492.28;;;44.14;22.72
6835;BME280;3455;42.150;24.734;2022-09-03T09:40:24;71457.25;;;43.80;23.15
6835;BME280;3455;42.150;24.734;2022-09-03T09:43:03;71497.69;;;44.19;22.67
6835;BME280;3455;42.150;24.734;2022-09-03T09:45:30;71701.31;;;45.01;22.14
6835;BME280;3455;42.150;24.734;2022-09-03T09:47:58;71727.66;;;45.46;22.58
6835;BME280;3455;42.150;24.734;2022-09-03T09:50:26;71927.56;;;45.97;21.51
6835;BME280;3455;42.150;24.734;2022-09-03T09:53:01;72091.38;;;47.02;20.07
6835;BME280;3455;42.150;24.734;2022-09-03T09:55:30;71991.03;;;46.47;20.44
6835;BME280;3455;42.150;24.734;2022-09-03T09:58:08;71902.19;;;45.96;21.32
6835;BME280;3455;42.150;24.734;2022-09-03T10:00:36;72005.25;;;46.40;20.53
6835;BME280;3455;42.150;24.734;2022-09-03T10:03:09;71919.09;;;45.90;21.56
6835;BME280;3455;42.150;24.734;2022-09-03T10:05:38;71719.97;;;45.12;21.34
6835;BME280;3455;42.150;24.734;2022-09-03T10:08:17;71602.41;;;44.58;22.26
6835;BME280;3455;42.150;24.734;2022-09-03T10:10:47;71694.31;;;45.08;22.07
6835;BME280;3455;42.150;24.734;2022-09-03T10:13:17;71798.03;;;45.51;21.23
6835;BME280;3455;42.150;24.734;2022-09-03T10:15:49;71798.84;;;45.65;21.09
6835;BME280;3455;42.150;24.734;2022-09-03T10:18:23;71881.22;;;45.72;21.42
6835;BME280;3455;42.150;24.734;2022-09-03T10:20:59;71698.41;;;45.23;21.85
6835;BME280;3455;42.150;24.734;2022-09-03T10:23:38;72266.97;;;47.53;20.14
6835;BME280;3455;42.150;24.734;2022-09-03T10:26:13;71807.94;;;45.37;21.32
6835;BME280;3455;42.150;24.734;2022-09-03T10:28:43;71855.81;;;45.50;21.99
6835;BME280;3455;42.150;24.734;2022-09-03T10:31:33;72205.16;;;47.37;20.11
6835;BME280;3455;42.150;24.734;2022-09-03T10:34:09;72104.81;;;47.02;20.55
6835;BME280;3455;42.150;24.734;2022-09-03T10:36:43;72290.44;;;47.59;20.17
6835;BME280;3455;42.150;24.734;2022-09-03T10:39:18;72093.63;;;46.95;20.08
6835;BME280;3455;42.150;24.734;2022-09-03T10:41:57;72084.34;;;46.94;19.48
6835;BME280;3455;42.150;24.734;2022-09-03T10:44:40;72105.25;;;46.77;20.60
6835;BME280;3455;42.150;24.734;2022-09-03T10:47:25;71686.31;;;45.13;21.32
6835;BME280;3455;42.150;24.734;2022-09-03T10:49:59;71773.78;;;45.42;21.72
6835;BME280;3455;42.150;24.734;2022-09-03T10:52:35;71932.56;;;46.11;21.01
6835;BME280;3455;42.150;24.734;2022-09-03T10:55:22;72335.25;;;47.92;19.90
6835;BME280;3455;42.150;24.734;2022-09-03T10:58:06;72065.13;;;46.87;19.83
6835;BME280;3455;42.150;24.734;2022-09-03T11:00:40;72321.41;;;47.85;19.57
6835;BME280;3455;42.150;24.734;2022-09-03T11:03:44;72568.69;;;49.05;19.05
6835;BME280;3455;42.150;24.734;2022-09-03T11:06:16;72117.44;;;47.08;19.27
6835;BME280;3455;42.150;24.734;2022-09-03T11:08:48;72196.28;;;47.43;19.29
6835;BME280;3455;42.150;24.734;2022-09-03T11:11:21;72506.63;;;48.85;17.99
6835;BME280;3455;42.150;24.734;2022-09-03T11:13:55;72241.41;;;47.58;19.01
6835;BME280;3455;42.150;24.734;2022-09-03T11:16:25;72389.25;;;48.33;18.78
6835;BME280;3455;42.150;24.734;2022-09-03T11:18:59;71850.56;;;45.91;20.61
6835;BME280;3455;42.150;24.734;2022-09-03T11:21:29;71922.03;;;46.24;20.25
6835;BME280;3455;42.150;24.734;2022-09-03T11:24:09;71910.09;;;45.87;20.35
6835;BME280;3455;42.150;24.734;2022-09-03T11:26:40;71846.28;;;45.51;20.76
6835;BME280;3455;42.150;24.734;2022-09-03T11:29:11;71692.38;;;45.18;21.08
6835;BME280;3455;42.150;24.734;2022-09-03T11:31:48;71945.56;;;46.40;21.11
6835;BME280;3455;42.150;24.734;2022-09-03T11:34:28;72175.31;;;47.39;19.50
6835;BME280;3455;42.150;24.734;2022-09-03T11:37:14;71775.06;;;45.68;20.39
6835;BME280;3455;42.150;24.734;2022-09-03T11:39:42;71865.50;;;45.95;19.29
6835;BME280;3455;42.150;24.734;2022-09-03T11:42:26;71844.94;;;45.77;20.69
6835;BME280;3455;42.150;24.734;2022-09-03T11:44:59;71807.88;;;45.69;20.60
6835;BME280;3455;42.150;24.734;2022-09-03T11:47:37;71803.22;;;45.58;20.71
6835;BME280;3455;42.150;24.734;2022-09-03T11:50:08;71789.44;;;45.71;20.64
6835;BME280;3455;42.150;24.734;2022-09-03T11:52:45;71676.69;;;45.25;20.47
6835;BME280;3455;42.150;24.734;2022-09-03T11:55:24;71402.59;;;43.99;21.28
6835;BME280;3455;42.150;24.734;2022-09-03T11:57:52;71326.00;;;43.45;21.85
6835;BME280;3455;42.150;24.734;2022-09-03T12:00:19;71371.28;;;43.93;21.83
6835;BME280;3455;42.150;24.734;2022-09-03T12:02:54;71643.28;;;44.83;20.57
6835;BME280;3455;42.150;24.734;2022-09-03T12:05:28;71427.19;;;43.95;21.42
6835;BME280;3455;42.150;24.734;2022-09-03T12:08:21;71470.09;;;44.04;21.13
6835;BME280;3455;42.150;24.734;2022-09-03T12:11:05;71561.75;;;44.46;21.00
6835;BME280;3455;42.150;24.734;2022-09-03T12:13:51;71408.47;;;44.16;21.82
6835;BME280;3455;42.150;24.734;2022-09-03T12:16:30;71628.34;;;44.80;21.02
6835;BME280;3455;42.150;24.734;2022-09-03T12:19:06;71423.16;;;44.05;21.67
6835;BME280;3455;42.150;24.734;2022-09-03T12:21:38;71901.72;;;46.21;19.96
6835;BME280;3455;42.150;24.734;2022-09-03T12:24:05;71814.44;;;45.70;19.82
6835;BME280;3455;42.150;24.734;2022-09-03T12:26:38;71886.81;;;46.22;19.27
6835;BME280;3455;42.150;24.734;2022-09-03T12:29:19;71655.78;;;45.21;19.40
6835;BME280;3455;42.150;24.734;2022-09-03T12:31:47;71626.72;;;45.08;19.90
6835;BME280;3455;42.150;24.734;2022-09-03T12:34:17;71400.38;;;43.90;20.38
6835;BME280;3455;42.150;24.734;2022-09-03T12:36:45;71816.84;;;45.72;19.55
6835;BME280;3455;42.150;24.734;2022-09-03T12:39:15;71774.69;;;45.45;19.66
6835;BME280;3455;42.150;24.734;2022-09-03T12:42:00;71797.91;;;45.99;18.47
6835;BME280;3455;42.150;24.734;2022-09-03T12:44:31;71555.63;;;44.73;19.75
6835;BME280;3455;42.150;24.734;2022-09-03T12:47:03;71439.53;;;44.24;20.18
6835;BME280;3455;42.150;24.734;2022-09-03T12:49:35;71718.66;;;45.43;18.76
6835;BME280;3455;42.150;24.734;2022-09-03T12:52:07;71142.44;;;42.73;21.15
6835;BME280;3455;42.150;24.734;2022-09-03T12:54:39;71515.19;;;44.34;20.18
6835;BME280;3455;42.150;24.734;2022-09-03T12:57:09;71264.38;;;43.72;20.88
6835;BME280;3455;42.150;24.734;2022-09-03T12:59:38;71265.22;;;43.30;21.09
6835;BME280;3455;42.150;24.734;2022-09-03T13:02:13;70994.69;;;42.04;22.39
6835;BME280;3455;42.150;24.734;2022-09-03T13:04:43;70671.66;;;40.82;23.44
6835;BME280;3455;42.150;24.734;2022-09-03T13:07:18;70719.13;;;40.95;24.02
6835;BME280;3455;42.150;24.734;2022-09-03T13:09:48;70473.03;;;39.59;25.04
6835;BME280;3455;42.150;24.734;2022-09-03T13:12:23;70567.13;;;39.97;24.61
6835;BME280;3455;42.150;24.734;2022-09-03T13:14:55;70512.91;;;40.05;24.48
6835;BME280;3455;42.150;24.734;2022-09-03T13:17:30;70473.31;;;39.57;25.21
6835;BME280;3455;42.150;24.734;2022-09-03T13:20:24;70418.75;;;39.38;25.24
6835;BME280;3455;42.150;24.734;2022-09-03T13:23:06;70305.44;;;38.86;26.01
6835;BME280;3455;42.150;24.734;2022-09-03T13:25:41;70328.13;;;39.05;26.02
6835;BME280;3455;42.150;24.734;2022-09-03T13:28:24;70458.63;;;39.63;25.01
6835;BME280;3455;42.150;24.734;2022-09-03T13:31:03;70525.25;;;39.81;24.83
6835;BME280;3455;42.150;24.734;2022-09-03T13:33:38;70432.28;;;39.56;25.16